Etusivu
METAR-TAF:

METAR-TAF

Lentoasemat :

South Wood County Airport (Alexander Field)

Wisconsin Rapids, Wisconsin, Yhdysvallat

Leveyspiiri: 44-21-33N, Pituuspiiri: 089-50-13W, korkeus merenpinnasta: 311 m

Tämänhetkinen sää

Tämä raportti tehtiin 24 minuuttia sitten, kello 16.14 UTC
Tuuli 15 kn pohjoisen/luoteesta puuskistuen 22 kn:hen
Lämpötila 9°C
Kosteus 61%
Ilmanpaine 1016 hPa
Näkyvyys: 16.1 km
Hajanaisia pilviä 2700 ft:n korkeudessa
Hajonneita pilviä 3400 ft:n korkeudessa

METAR: KISW 161614Z AUTO 33015G22KT 10SM SCT027 BKN034 09/02 A3000 RMK AO2 T00890022

Aika: 11:38 (16:38 UTC)


TAF: puuttuu

Säähavainnot ja -ennusteet yli 4000 lentoasemalta (METAR- ja TAF-raportit).

Käytössä olevat sääasemat on merkitty karttaan keltaisilla ja punaisilla pisteillä.

Aseta hiiri pisteen päälle nähdäksesi sääaseman nimen.

Klikkaa sitten nähdäksesi säähavainnot ja -ennusteet.

Kartan vaihtaminen: klikkaa mustalla rastilla varustettuja vihreitä pisteitä, niin voit zoomata sisään; viivalla varustettua vihreää pistettä, niin voit zoomata ulos tai vihreitä nuolia, niin pääset viereisille kartoille.


METAR-TAF: